Time;durP1;ratioP1;P1;durP2;ratioP2;P2;SDS_P1;SDS_P2;PMS_P1;PMS_P2;Temp;Humidity;BMP_temperature;BMP_pressure;BME280_temperature;BME280_humidity;BME280_pressure;Samples;Min_cycle;Max_cycle;Signal;HPM_P1;HPM_P2
2024/02/14 00:01:50;;;;;;;1999.90;999.90;;;;;;;;;;5042020;28;20048;-81
2024/02/14 00:04:17;;;;;;;1999.90;999.90;;;;;;;;;;5040892;28;20071;-82
2024/02/14 00:06:45;;;;;;;1999.90;999.90;;;;;;;;;;5050517;28;20049;-81
2024/02/14 00:09:11;;;;;;;1999.90;999.90;;;;;;;;;;5043190;28;20054;-81
2024/02/14 00:11:38;;;;;;;1999.90;999.90;;;;;;;;;;5043115;28;20417;-81
2024/02/14 00:14:04;;;;;;;1999.90;999.90;;;;;;;;;;5052875;28;20057;-81
2024/02/14 00:16:33;;;;;;;1999.90;999.90;;;;;;;;;;5052731;28;20045;-81
2024/02/14 00:18:59;;;;;;;1999.90;999.90;;;;;;;;;;5049876;28;20053;-81
2024/02/14 00:21:26;;;;;;;1999.90;999.90;;;;;;;;;;5044264;28;20413;-81
2024/02/14 00:23:52;;;;;;;1999.90;999.90;;;;;;;;;;5051395;28;20048;-82
2024/02/14 00:26:19;;;;;;;1999.90;999.90;;;;;;;;;;5051108;28;20146;-80
2024/02/14 00:28:45;;;;;;;1999.90;999.90;;;;;;;;;;5051463;28;20128;-81
2024/02/14 00:31:12;;;;;;;1999.90;999.90;;;;;;;;;;5055243;28;20048;-81
2024/02/14 00:33:41;;;;;;;1999.90;999.90;;;;;;;;;;5044924;28;20049;-81
2024/02/14 00:36:07;;;;;;;1999.90;999.90;;;;;;;;;;5049538;28;20045;-80
2024/02/14 00:38:34;;;;;;;1999.90;999.90;;;;;;;;;;5050784;28;20049;-84
2024/02/14 00:41:00;;;;;;;1999.90;999.90;;;;;;;;;;5055625;28;20057;-81
2024/02/14 00:43:27;;;;;;;1999.90;999.90;;;;;;;;;;5047221;28;20037;-81
2024/02/14 00:45:53;;;;;;;1999.90;999.90;;;;;;;;;;5052470;28;20386;-82
2024/02/14 00:48:20;;;;;;;1999.90;999.90;;;;;;;;;;5047388;28;20042;-81
2024/02/14 00:50:48;;;;;;;1999.90;999.90;;;;;;;;;;5060325;28;20049;-81
2024/02/14 00:53:14;;;;;;;1999.90;999.90;;;;;;;;;;5043876;28;20048;-81
2024/02/14 00:55:41;;;;;;;1999.90;999.90;;;;;;;;;;5053635;28;20048;-81
2024/02/14 00:58:07;;;;;;;1999.90;999.90;;;;;;;;;;5052855;28;20051;-80
2024/02/14 01:00:34;;;;;;;1999.90;999.90;;;;;;;;;;5045434;28;20053;-82
2024/02/14 01:03:00;;;;;;;1999.90;999.90;;;;;;;;;;5051029;28;20425;-81
2024/02/14 01:05:27;;;;;;;1999.90;999.90;;;;;;;;;;5048267;28;20051;-81
2024/02/14 01:07:55;;;;;;;1999.90;999.90;;;;;;;;;;5039738;28;20052;-81
2024/02/14 01:10:21;;;;;;;1999.90;999.90;;;;;;;;;;5053005;28;20045;-84
2024/02/14 01:12:48;;;;;;;1999.90;999.90;;;;;;;;;;5047683;28;20049;-81
2024/02/14 01:15:15;;;;;;;1999.90;999.90;;;;;;;;;;5047367;28;20126;-80
2024/02/14 01:17:42;;;;;;;1999.90;999.90;;;;;;;;;;5047850;28;20049;-81
2024/02/14 01:20:09;;;;;;;1999.90;999.90;;;;;;;;;;5042252;28;20045;-80
2024/02/14 01:22:36;;;;;;;1999.90;999.90;;;;;;;;;;5062590;28;20049;-81
2024/02/14 01:25:06;;;;;;;1999.90;999.90;;;;;;;;;;5042082;28;20048;-80
2024/02/14 01:27:32;;;;;;;1999.90;999.90;;;;;;;;;;5048146;28;20052;-82
2024/02/14 01:29:59;;;;;;;1999.90;999.90;;;;;;;;;;5050659;28;20049;-81
2024/02/14 01:32:26;;;;;;;1999.90;999.90;;;;;;;;;;5044495;28;20060;-81
2024/02/14 01:34:52;;;;;;;1999.90;999.90;;;;;;;;;;5050099;28;20048;-80
2024/02/14 01:37:20;;;;;;;1999.90;999.90;;;;;;;;;;5043590;28;20077;-81
2024/02/14 01:39:47;;;;;;;1999.90;999.90;;;;;;;;;;5047745;28;20132;-82
2024/02/14 01:42:15;;;;;;;1999.90;999.90;;;;;;;;;;5056572;28;20053;-81
2024/02/14 01:44:43;;;;;;;1999.90;999.90;;;;;;;;;;5055707;28;20037;-81
2024/02/14 01:47:10;;;;;;;1999.90;999.90;;;;;;;;;;5045903;28;20220;-80
2024/02/14 01:49:36;;;;;;;1999.90;999.90;;;;;;;;;;5050027;28;20048;-81
2024/02/14 01:52:04;;;;;;;1999.90;999.90;;;;;;;;;;5044553;28;20049;-81
2024/02/14 01:54:30;;;;;;;1999.90;999.90;;;;;;;;;;5049384;28;20053;-81
2024/02/14 01:56:58;;;;;;;1999.90;999.90;;;;;;;;;;5042454;28;20049;-80
2024/02/14 01:59:26;;;;;;;1999.90;999.90;;;;;;;;;;5049785;28;20680;-80
2024/02/14 02:01:53;;;;;;;1999.90;999.90;;;;;;;;;;5042486;28;20055;-80
2024/02/14 02:04:20;;;;;;;1999.90;999.90;;;;;;;;;;5041434;28;20405;-80
2024/02/14 02:06:47;;;;;;;1999.90;999.90;;;;;;;;;;5049785;28;20053;-81
2024/02/14 02:09:14;;;;;;;1999.90;999.90;;;;;;;;;;5040162;28;20069;-79
2024/02/14 02:11:47;;;;;;;1999.90;999.90;;;;;;;;;;5044917;28;20041;-80
2024/02/14 02:14:14;;;;;;;1999.90;999.90;;;;;;;;;;5044593;28;20103;-81
2024/02/14 02:16:42;;;;;;;1999.90;999.90;;;;;;;;;;5046918;28;20380;-80
2024/02/14 02:19:09;;;;;;;1999.90;999.90;;;;;;;;;;5034916;28;20045;-80
2024/02/14 02:21:35;;;;;;;1999.90;999.90;;;;;;;;;;5044238;28;20053;-80
2024/02/14 02:24:19;;;;;;;1999.90;999.90;;;;;;;;;;5051020;28;20047;-80
2024/02/14 02:26:46;;;;;;;1999.90;999.90;;;;;;;;;;5042449;28;20065;-80
2024/02/14 02:29:12;;;;;;;1999.90;999.90;;;;;;;;;;5043888;28;20049;-81
2024/02/14 02:31:38;;;;;;;1999.90;999.90;;;;;;;;;;5051329;28;20458;-80
2024/02/14 02:34:05;;;;;;;1999.90;999.90;;;;;;;;;;5043202;28;20045;-80
2024/02/14 02:36:33;;;;;;;1999.90;999.90;;;;;;;;;;5043626;28;20064;-80
2024/02/14 02:39:00;;;;;;;1999.90;999.90;;;;;;;;;;5045125;28;20523;-82
2024/02/14 02:41:28;;;;;;;1999.90;999.90;;;;;;;;;;5037298;28;20107;-81
2024/02/14 02:43:54;;;;;;;1999.90;999.90;;;;;;;;;;5049428;28;20044;-81
2024/02/14 02:46:22;;;;;;;1999.90;999.90;;;;;;;;;;5048511;28;20052;-81
2024/02/14 02:48:48;;;;;;;1999.90;999.90;;;;;;;;;;5050956;28;20139;-80
2024/02/14 02:51:17;;;;;;;1999.90;999.90;;;;;;;;;;5051240;28;20131;-80
2024/02/14 02:53:49;;;;;;;1999.90;999.90;;;;;;;;;;5042110;28;20057;-80
2024/02/14 02:56:15;;;;;;;1999.90;999.90;;;;;;;;;;5058229;28;20064;-80
2024/02/14 02:58:44;;;;;;;1999.90;999.90;;;;;;;;;;5047177;28;20051;-80
2024/02/14 03:01:11;;;;;;;1999.90;999.90;;;;;;;;;;5048006;28;20045;-80
2024/02/14 03:03:38;;;;;;;1999.90;999.90;;;;;;;;;;5044365;28;20049;-80
2024/02/14 03:06:05;;;;;;;1999.90;999.90;;;;;;;;;;5049803;28;20482;-80
2024/02/14 03:08:34;;;;;;;1999.90;999.90;;;;;;;;;;5038782;28;20041;-82
2024/02/14 03:11:04;;;;;;;1999.90;999.90;;;;;;;;;;5051690;28;20098;-80
2024/02/14 03:13:31;;;;;;;1999.90;999.90;;;;;;;;;;5046113;28;20056;-80
2024/02/14 03:15:59;;;;;;;1999.90;999.90;;;;;;;;;;5042499;28;20053;-83
2024/02/14 03:18:26;;;;;;;1999.90;999.90;;;;;;;;;;5046514;28;20052;-81
2024/02/14 03:20:53;;;;;;;1999.90;999.90;;;;;;;;;;5044379;28;20049;-80
2024/02/14 03:23:20;;;;;;;1999.90;999.90;;;;;;;;;;5043906;28;20045;-80
2024/02/14 03:25:46;;;;;;;1999.90;999.90;;;;;;;;;;5052885;28;20045;-80
2024/02/14 03:28:13;;;;;;;1999.90;999.90;;;;;;;;;;5057276;28;20054;-80
2024/02/14 03:30:40;;;;;;;1999.90;999.90;;;;;;;;;;5045040;28;20056;-81
2024/02/14 03:33:08;;;;;;;1999.90;999.90;;;;;;;;;;5045440;28;20555;-81
2024/02/14 03:35:35;;;;;;;1999.90;999.90;;;;;;;;;;5043179;28;20041;-81
2024/02/14 03:38:03;;;;;;;1999.90;999.90;;;;;;;;;;5050245;28;20047;-80
2024/02/14 03:40:30;;;;;;;1999.90;999.90;;;;;;;;;;5049644;28;20049;-80
2024/02/14 03:42:56;;;;;;;1999.90;999.90;;;;;;;;;;5042025;28;20049;-82
2024/02/14 03:45:23;;;;;;;1999.90;999.90;;;;;;;;;;5043775;28;20068;-81
2024/02/14 03:47:50;;;;;;;1999.90;999.90;;;;;;;;;;5040760;28;20057;-80
2024/02/14 03:50:17;;;;;;;1999.90;999.90;;;;;;;;;;5050995;28;20059;-81
2024/02/14 03:52:44;;;;;;;1999.90;999.90;;;;;;;;;;5049880;28;20067;-80
2024/02/14 03:55:13;;;;;;;1999.90;999.90;;;;;;;;;;5047519;28;20045;-81
2024/02/14 03:57:39;;;;;;;1999.90;999.90;;;;;;;;;;5048198;28;20055;-80
2024/02/14 04:00:08;;;;;;;1999.90;999.90;;;;;;;;;;5060176;28;20049;-80
2024/02/14 04:02:35;;;;;;;1999.90;999.90;;;;;;;;;;5054287;28;20073;-81
2024/02/14 04:05:02;;;;;;;1999.90;999.90;;;;;;;;;;5049416;28;20041;-81
2024/02/14 04:07:30;;;;;;;1999.90;999.90;;;;;;;;;;5055302;28;20052;-81
2024/02/14 04:09:57;;;;;;;1999.90;999.90;;;;;;;;;;5048633;28;20048;-81
2024/02/14 04:12:23;;;;;;;1999.90;999.90;;;;;;;;;;5053651;28;20075;-81
2024/02/14 04:14:50;;;;;;;1999.90;999.90;;;;;;;;;;5052100;28;20479;-80
2024/02/14 04:17:16;;;;;;;1999.90;999.90;;;;;;;;;;5040173;28;20053;-80
2024/02/14 04:19:43;;;;;;;1999.90;999.90;;;;;;;;;;5043216;28;20041;-81
2024/02/14 04:22:09;;;;;;;1999.90;999.90;;;;;;;;;;5043176;28;20049;-81
2024/02/14 04:24:46;;;;;;;1999.90;999.90;;;;;;;;;;5044927;28;20049;-82
2024/02/14 04:27:13;;;;;;;1999.90;999.90;;;;;;;;;;5050197;28;20061;-81
2024/02/14 04:29:39;;;;;;;1999.90;999.90;;;;;;;;;;5054441;28;20182;-81
2024/02/14 04:32:06;;;;;;;1999.90;999.90;;;;;;;;;;5056552;28;20049;-82
2024/02/14 04:34:34;;;;;;;1999.90;999.90;;;;;;;;;;5047092;28;20068;-80
2024/02/14 04:37:02;;;;;;;1999.90;999.90;;;;;;;;;;5057872;28;20052;-82
2024/02/14 04:39:28;;;;;;;1999.90;999.90;;;;;;;;;;5054252;28;20071;-81
2024/02/14 04:41:56;;;;;;;1999.90;999.90;;;;;;;;;;5051784;28;20041;-80
2024/02/14 04:44:23;;;;;;;1999.90;999.90;;;;;;;;;;5058472;28;20041;-81
2024/02/14 04:46:49;;;;;;;1999.90;999.90;;;;;;;;;;5054566;28;20493;-83
2024/02/14 04:49:16;;;;;;;1999.90;999.90;;;;;;;;;;5060045;28;20047;-83
2024/02/14 04:51:42;;;;;;;1999.90;999.90;;;;;;;;;;5054994;28;20037;-81
2024/02/14 04:54:09;;;;;;;1999.90;999.90;;;;;;;;;;5056037;28;20049;-81
2024/02/14 04:56:36;;;;;;;1999.90;999.90;;;;;;;;;;5040961;28;20061;-82
2024/02/14 04:59:04;;;;;;;1999.90;999.90;;;;;;;;;;5041190;28;20486;-81
2024/02/14 05:01:31;;;;;;;1999.90;999.90;;;;;;;;;;5048009;28;20075;-81
2024/02/14 05:03:58;;;;;;;1999.90;999.90;;;;;;;;;;5048255;28;20053;-83
2024/02/14 05:06:24;;;;;;;1999.90;999.90;;;;;;;;;;5045321;28;20041;-81
2024/02/14 05:08:51;;;;;;;1999.90;999.90;;;;;;;;;;5052737;28;20055;-81
2024/02/14 05:11:18;;;;;;;1999.90;999.90;;;;;;;;;;5052909;28;20049;-81
2024/02/14 05:13:44;;;;;;;1999.90;999.90;;;;;;;;;;5048617;28;20051;-82
2024/02/14 05:16:12;;;;;;;1999.90;999.90;;;;;;;;;;5053864;28;20044;-83
2024/02/14 05:18:39;;;;;;;1999.90;999.90;;;;;;;;;;5048044;28;20044;-84
2024/02/14 05:21:07;;;;;;;1999.90;999.90;;;;;;;;;;5049891;28;20053;-82
2024/02/14 05:23:34;;;;;;;1999.90;999.90;;;;;;;;;;5051513;28;20052;-82
2024/02/14 05:26:01;;;;;;;1999.90;999.90;;;;;;;;;;5053380;28;20073;-82
2024/02/14 05:28:28;;;;;;;1999.90;999.90;;;;;;;;;;5047334;28;20111;-82
2024/02/14 05:30:55;;;;;;;1999.90;999.90;;;;;;;;;;5042318;28;20053;-84
2024/02/14 05:33:23;;;;;;;1999.90;999.90;;;;;;;;;;5057726;28;20049;-82
2024/02/14 05:35:49;;;;;;;1999.90;999.90;;;;;;;;;;5038122;28;20052;-82
2024/02/14 05:38:16;;;;;;;1999.90;999.90;;;;;;;;;;5048213;28;20680;-83
2024/02/14 05:40:43;;;;;;;1999.90;999.90;;;;;;;;;;5050887;28;20048;-82
2024/02/14 05:43:10;;;;;;;1999.90;999.90;;;;;;;;;;5045134;28;20053;-83
2024/02/14 05:45:36;;;;;;;1999.90;999.90;;;;;;;;;;5049340;28;20057;-83
2024/02/14 05:48:04;;;;;;;1999.90;999.90;;;;;;;;;;5049641;28;20085;-83
2024/02/14 05:50:32;;;;;;;1999.90;999.90;;;;;;;;;;5051503;28;20060;-83
2024/02/14 05:52:59;;;;;;;1999.90;999.90;;;;;;;;;;5036722;28;20041;-84
2024/02/14 05:55:25;;;;;;;1999.90;999.90;;;;;;;;;;5056380;28;20044;-83
2024/02/14 05:57:52;;;;;;;1999.90;999.90;;;;;;;;;;5058963;28;20450;-84
2024/02/14 06:00:20;;;;;;;1999.90;999.90;;;;;;;;;;5040864;28;20057;-82
2024/02/14 06:02:46;;;;;;;1999.90;999.90;;;;;;;;;;5055194;28;20065;-83
2024/02/14 06:05:14;;;;;;;1999.90;999.90;;;;;;;;;;5038075;28;20080;-83
2024/02/14 06:07:42;;;;;;;1999.90;999.90;;;;;;;;;;5048940;28;20057;-83
2024/02/14 06:10:09;;;;;;;1999.90;999.90;;;;;;;;;;5054588;28;20054;-83
2024/02/14 06:12:36;;;;;;;1999.90;999.90;;;;;;;;;;5046649;28;20044;-83
2024/02/14 06:15:03;;;;;;;1999.90;999.90;;;;;;;;;;5048107;28;20041;-84
2024/02/14 06:17:30;;;;;;;1999.90;999.90;;;;;;;;;;5045258;28;20050;-86
2024/02/14 06:19:56;;;;;;;1999.90;999.90;;;;;;;;;;5046750;28;20045;-86
2024/02/14 06:22:23;;;;;;;1999.90;999.90;;;;;;;;;;5055884;28;20094;-83
2024/02/14 06:24:51;;;;;;;1999.90;999.90;;;;;;;;;;5050903;28;20045;-86
2024/02/14 06:27:17;;;;;;;1999.90;999.90;;;;;;;;;;5048786;28;20536;-85
2024/02/14 06:29:44;;;;;;;1999.90;999.90;;;;;;;;;;5045928;28;20050;-84
2024/02/14 06:32:12;;;;;;;1999.90;999.90;;;;;;;;;;5042608;28;20048;-84
2024/02/14 06:34:39;;;;;;;1999.90;999.90;;;;;;;;;;5042806;28;20050;-84
2024/02/14 06:37:05;;;;;;;1999.90;999.90;;;;;;;;;;5041920;28;20046;-83
2024/02/14 06:39:32;;;;;;;1999.90;999.90;;;;;;;;;;5060389;28;20044;-85
2024/02/14 06:42:00;;;;;;;1999.90;999.90;;;;;;;;;;5039935;28;20053;-85
2024/02/14 06:44:26;;;;;;;1999.90;999.90;;;;;;;;;;5054087;28;20048;-84
2024/02/14 06:46:53;;;;;;;1999.90;999.90;;;;;;;;;;5047048;28;20074;-84
2024/02/14 06:49:19;;;;;;;1999.90;999.90;;;;;;;;;;5042983;28;20049;-84
2024/02/14 06:51:46;;;;;;;1999.90;999.90;;;;;;;;;;5042964;28;20580;-84
2024/02/14 06:54:13;;;;;;;1999.90;999.90;;;;;;;;;;5042538;28;20041;-85
2024/02/14 06:56:39;;;;;;;1999.90;999.90;;;;;;;;;;5045195;28;20425;-86
2024/02/14 06:59:07;;;;;;;1999.90;999.90;;;;;;;;;;5050840;28;20362;-84
2024/02/14 07:01:34;;;;;;;1999.90;999.90;;;;;;;;;;5050146;28;20052;-83
2024/02/14 07:04:01;;;;;;;1999.90;999.90;;;;;;;;;;5043562;28;20052;-84
2024/02/14 07:06:27;;;;;;;1999.90;999.90;;;;;;;;;;5037867;28;20053;-86
2024/02/14 07:08:54;;;;;;;1999.90;999.90;;;;;;;;;;5055267;28;20488;-84
2024/02/14 07:11:20;;;;;;;1999.90;999.90;;;;;;;;;;5048714;28;20080;-85
2024/02/14 07:13:47;;;;;;;1999.90;999.90;;;;;;;;;;5048512;28;20562;-86
2024/02/14 07:16:15;;;;;;;1999.90;999.90;;;;;;;;;;5051174;28;20051;-83
2024/02/14 07:18:42;;;;;;;1999.90;999.90;;;;;;;;;;5045387;28;20515;-83
2024/02/14 07:21:08;;;;;;;1999.90;999.90;;;;;;;;;;5044293;28;20061;-84
2024/02/14 07:23:35;;;;;;;1999.90;999.90;;;;;;;;;;5048105;28;20469;-85
2024/02/14 07:26:01;;;;;;;1999.90;999.90;;;;;;;;;;5059335;28;20048;-84
2024/02/14 07:28:28;;;;;;;1999.90;999.90;;;;;;;;;;5048292;28;20052;-84
2024/02/14 07:30:55;;;;;;;1999.90;999.90;;;;;;;;;;5048235;28;20041;-83
2024/02/14 07:33:23;;;;;;;1999.90;999.90;;;;;;;;;;5048908;28;20055;-84
2024/02/14 07:35:50;;;;;;;1999.90;999.90;;;;;;;;;;5048673;28;20041;-83
2024/02/14 07:38:17;;;;;;;1999.90;999.90;;;;;;;;;;5053839;28;20055;-83
2024/02/14 07:40:44;;;;;;;1999.90;999.90;;;;;;;;;;5045611;28;20048;-84
2024/02/14 07:43:11;;;;;;;1999.90;999.90;;;;;;;;;;5048395;28;20414;-83
2024/02/14 07:45:37;;;;;;;1999.90;999.90;;;;;;;;;;5045403;28;20072;-84
2024/02/14 07:48:04;;;;;;;1999.90;999.90;;;;;;;;;;5044497;28;20053;-84
2024/02/14 07:50:32;;;;;;;1999.90;999.90;;;;;;;;;;5043993;28;20128;-84
2024/02/14 07:52:59;;;;;;;1999.90;999.90;;;;;;;;;;5042365;28;20382;-84
2024/02/14 07:55:26;;;;;;;1999.90;999.90;;;;;;;;;;5047513;28;20041;-83
2024/02/14 07:57:53;;;;;;;1999.90;999.90;;;;;;;;;;5044287;28;20090;-84
2024/02/14 08:00:22;;;;;;;1999.90;999.90;;;;;;;;;;5042252;28;20052;-84
2024/02/14 08:02:49;;;;;;;1999.90;999.90;;;;;;;;;;5051360;28;20047;-84
2024/02/14 08:05:15;;;;;;;1999.90;999.90;;;;;;;;;;5050738;28;20044;-84
2024/02/14 08:07:43;;;;;;;1999.90;999.90;;;;;;;;;;5044419;28;20056;-83
2024/02/14 08:10:10;;;;;;;1999.90;999.90;;;;;;;;;;5044943;28;20052;-86
2024/02/14 08:12:37;;;;;;;1999.90;999.90;;;;;;;;;;5044377;28;20049;-84
2024/02/14 08:15:06;;;;;;;1999.90;999.90;;;;;;;;;;5039754;28;20042;-85
2024/02/14 08:17:34;;;;;;;1999.90;999.90;;;;;;;;;;5047330;28;20041;-84
2024/02/14 08:20:01;;;;;;;1999.90;999.90;;;;;;;;;;5055246;28;20051;-84
2024/02/14 08:22:27;;;;;;;1999.90;999.90;;;;;;;;;;5043647;28;20092;-84
2024/02/14 08:24:56;;;;;;;1999.90;999.90;;;;;;;;;;5041435;28;20119;-84
2024/02/14 08:27:23;;;;;;;1999.90;999.90;;;;;;;;;;5049037;28;20065;-84
2024/02/14 08:29:49;;;;;;;1999.90;999.90;;;;;;;;;;5041983;28;20389;-84
2024/02/14 08:32:16;;;;;;;1999.90;999.90;;;;;;;;;;5043510;28;20053;-85
2024/02/14 08:34:42;;;;;;;1999.90;999.90;;;;;;;;;;5044885;28;20073;-83
2024/02/14 08:37:10;;;;;;;1999.90;999.90;;;;;;;;;;5037071;28;20049;-84
2024/02/14 08:39:37;;;;;;;1999.90;999.90;;;;;;;;;;5047903;28;20767;-85
2024/02/14 08:42:07;;;;;;;1999.90;999.90;;;;;;;;;;5044447;28;20183;-84
2024/02/14 08:44:34;;;;;;;1999.90;999.90;;;;;;;;;;5043487;28;20052;-84
2024/02/14 08:47:00;;;;;;;1999.90;999.90;;;;;;;;;;5055576;28;20044;-84
2024/02/14 08:49:27;;;;;;;1999.90;999.90;;;;;;;;;;5048656;28;20060;-85
2024/02/14 08:51:54;;;;;;;1999.90;999.90;;;;;;;;;;5056035;28;20437;-85
2024/02/14 08:54:32;;;;;;;1999.90;999.90;;;;;;;;;;5056247;28;20037;-85
2024/02/14 08:56:59;;;;;;;1999.90;999.90;;;;;;;;;;5049794;28;20040;-85
2024/02/14 08:59:26;;;;;;;1999.90;999.90;;;;;;;;;;5049961;28;20045;-85
2024/02/14 09:01:53;;;;;;;1999.90;999.90;;;;;;;;;;5054945;28;20087;-84
2024/02/14 09:04:19;;;;;;;1999.90;999.90;;;;;;;;;;5047993;28;20044;-84
2024/02/14 09:06:46;;;;;;;1999.90;999.90;;;;;;;;;;5052340;28;20055;-84
2024/02/14 09:09:15;;;;;;;1999.90;999.90;;;;;;;;;;5047017;28;20053;-84
2024/02/14 09:11:42;;;;;;;1999.90;999.90;;;;;;;;;;5056696;28;20040;-85
2024/02/14 09:14:10;;;;;;;1999.90;999.90;;;;;;;;;;5041229;28;20060;-84
2024/02/14 09:16:38;;;;;;;1999.90;999.90;;;;;;;;;;5055459;28;20503;-84
2024/02/14 09:19:07;;;;;;;1999.90;999.90;;;;;;;;;;5040937;28;20065;-84
2024/02/14 09:21:34;;;;;;;1999.90;999.90;;;;;;;;;;5048259;28;20046;-84
2024/02/14 09:24:00;;;;;;;1999.90;999.90;;;;;;;;;;5054598;28;20527;-84
2024/02/14 09:26:28;;;;;;;1999.90;999.90;;;;;;;;;;5052502;28;20051;-81
2024/02/14 09:28:55;;;;;;;1999.90;999.90;;;;;;;;;;5049127;28;20053;-82
2024/02/14 09:31:22;;;;;;;1999.90;999.90;;;;;;;;;;5044857;28;20375;-81
2024/02/14 09:33:50;;;;;;;1999.90;999.90;;;;;;;;;;5059506;28;20044;-81
2024/02/14 09:36:16;;;;;;;1999.90;999.90;;;;;;;;;;5052802;28;20069;-81
2024/02/14 09:38:44;;;;;;;1999.90;999.90;;;;;;;;;;5053456;28;20051;-81
2024/02/14 09:41:16;;;;;;;1999.90;999.90;;;;;;;;;;5041298;28;20060;-81
2024/02/14 09:43:45;;;;;;;1999.90;999.90;;;;;;;;;;5044852;28;20084;-83
2024/02/14 09:46:13;;;;;;;1999.90;999.90;;;;;;;;;;5046470;28;20431;-82
2024/02/14 09:48:39;;;;;;;1999.90;999.90;;;;;;;;;;5044439;28;20135;-83
2024/02/14 09:51:08;;;;;;;1999.90;999.90;;;;;;;;;;5046616;28;20052;-81
2024/02/14 09:53:35;;;;;;;1999.90;999.90;;;;;;;;;;5039833;28;20049;-83
2024/02/14 09:56:03;;;;;;;1999.90;999.90;;;;;;;;;;5053798;28;20048;-82
2024/02/14 09:58:30;;;;;;;1999.90;999.90;;;;;;;;;;5033019;28;20049;-83
2024/02/14 10:00:56;;;;;;;1999.90;999.90;;;;;;;;;;5044570;28;20175;-84
2024/02/14 10:03:23;;;;;;;1999.90;999.90;;;;;;;;;;5058073;28;20041;-82
2024/02/14 10:05:49;;;;;;;1999.90;999.90;;;;;;;;;;5041555;28;20512;-84
2024/02/14 10:08:17;;;;;;;1999.90;999.90;;;;;;;;;;5059724;28;20041;-83
2024/02/14 10:10:45;;;;;;;1999.90;999.90;;;;;;;;;;5044469;28;20041;-85
2024/02/14 10:13:12;;;;;;;1999.90;999.90;;;;;;;;;;5044957;28;20135;-81
2024/02/14 10:15:38;;;;;;;1999.90;999.90;;;;;;;;;;5051017;28;20047;-83
2024/02/14 10:18:06;;;;;;;1999.90;999.90;;;;;;;;;;5056011;28;20054;-83
2024/02/14 10:20:34;;;;;;;1999.90;999.90;;;;;;;;;;5039567;28;20052;-83
2024/02/14 10:23:04;;;;;;;1999.90;999.90;;;;;;;;;;5050196;28;20457;-82
2024/02/14 10:25:32;;;;;;;1999.90;999.90;;;;;;;;;;5056644;28;20068;-82
2024/02/14 10:28:04;;;;;;;1999.90;999.90;;;;;;;;;;5047169;28;20446;-81
2024/02/14 10:30:31;;;;;;;1999.90;999.90;;;;;;;;;;5046470;28;20057;-84
2024/02/14 10:32:59;;;;;;;1999.90;999.90;;;;;;;;;;5049876;28;20046;-81
2024/02/14 10:35:25;;;;;;;1999.90;999.90;;;;;;;;;;5044268;28;20045;-81
2024/02/14 10:37:53;;;;;;;1999.90;999.90;;;;;;;;;;5050004;28;20049;-81
2024/02/14 10:40:21;;;;;;;1999.90;999.90;;;;;;;;;;5049240;28;20504;-82
2024/02/14 10:42:50;;;;;;;1999.90;999.90;;;;;;;;;;5042236;28;20045;-81
2024/02/14 10:45:16;;;;;;;1999.90;999.90;;;;;;;;;;5038564;28;20045;-81
2024/02/14 10:47:44;;;;;;;1999.90;999.90;;;;;;;;;;5046458;28;20062;-85
2024/02/14 10:50:14;;;;;;;1999.90;999.90;;;;;;;;;;5041513;28;20049;-81
2024/02/14 10:52:41;;;;;;;1999.90;999.90;;;;;;;;;;5039736;28;20045;-81
2024/02/14 10:55:26;;;;;;;1999.90;999.90;;;;;;;;;;5042026;28;20059;-83
2024/02/14 10:57:54;;;;;;;1999.90;999.90;;;;;;;;;;5052040;28;20050;-82
2024/02/14 11:00:21;;;;;;;1999.90;999.90;;;;;;;;;;5040173;28;20078;-81
2024/02/14 11:02:49;;;;;;;1999.90;999.90;;;;;;;;;;5045353;28;20512;-81
2024/02/14 11:05:16;;;;;;;1999.90;999.90;;;;;;;;;;5045406;28;20055;-81
2024/02/14 11:07:47;;;;;;;1999.90;999.90;;;;;;;;;;5038709;28;20049;-81
2024/02/14 11:10:15;;;;;;;1999.90;999.90;;;;;;;;;;5045787;28;20136;-82
2024/02/14 11:12:41;;;;;;;1999.90;999.90;;;;;;;;;;5049871;28;20119;-81
2024/02/14 11:15:13;;;;;;;1999.90;999.90;;;;;;;;;;5039148;28;20060;-82
2024/02/14 11:17:41;;;;;;;1999.90;999.90;;;;;;;;;;5044156;28;20401;-82
2024/02/14 11:20:18;;;;;;;1999.90;999.90;;;;;;;;;;5052775;28;20053;-85
2024/02/14 11:22:55;;;;;;;1999.90;999.90;;;;;;;;;;5048037;28;20041;-81
2024/02/14 11:26:00;;;;;;;1999.90;999.90;;;;;;;;;;5033105;28;20049;-83
2024/02/14 11:28:27;;;;;;;1999.90;999.90;;;;;;;;;;5054705;28;20056;-81
2024/02/14 11:31:00;;;;;;;1999.90;999.90;;;;;;;;;;5049849;28;20055;-83
2024/02/14 11:33:27;;;;;;;1999.90;999.90;;;;;;;;;;5050541;28;20046;-83
2024/02/14 11:35:55;;;;;;;1999.90;999.90;;;;;;;;;;5043405;28;20056;-83
2024/02/14 11:38:23;;;;;;;1999.90;999.90;;;;;;;;;;5041301;28;20117;-83
2024/02/14 11:40:50;;;;;;;1999.90;999.90;;;;;;;;;;5057388;28;20054;-82
2024/02/14 11:43:17;;;;;;;1999.90;999.90;;;;;;;;;;5050688;28;20048;-82
2024/02/14 11:45:46;;;;;;;1999.90;999.90;;;;;;;;;;5043983;28;20049;-83
2024/02/14 11:48:14;;;;;;;1999.90;999.90;;;;;;;;;;5043774;28;20539;-82
2024/02/14 11:50:42;;;;;;;1999.90;999.90;;;;;;;;;;5045399;28;20056;-82
2024/02/14 11:53:11;;;;;;;1999.90;999.90;;;;;;;;;;5058660;28;20131;-82
2024/02/14 11:55:38;;;;;;;1999.90;999.90;;;;;;;;;;5051516;28;20048;-83
2024/02/14 11:58:08;;;;;;;1999.90;999.90;;;;;;;;;;5040950;28;20041;-83
2024/02/14 12:00:35;;;;;;;1999.90;999.90;;;;;;;;;;5042191;28;20056;-83
2024/02/14 12:03:02;;;;;;;1999.90;999.90;;;;;;;;;;5044508;28;20132;-83
2024/02/14 12:05:30;;;;;;;1999.90;999.90;;;;;;;;;;5039994;28;20045;-83
2024/02/14 12:07:56;;;;;;;1999.90;999.90;;;;;;;;;;5057498;28;20045;-81
2024/02/14 12:10:23;;;;;;;1999.90;999.90;;;;;;;;;;5046525;28;20045;-82
2024/02/14 12:12:50;;;;;;;1999.90;999.90;;;;;;;;;;5047761;28;20053;-82
2024/02/14 12:15:17;;;;;;;1999.90;999.90;;;;;;;;;;5041788;28;20046;-82
2024/02/14 12:17:43;;;;;;;1999.90;999.90;;;;;;;;;;5052013;28;20482;-81
2024/02/14 12:20:11;;;;;;;1999.90;999.90;;;;;;;;;;5043346;28;20066;-81
2024/02/14 12:22:39;;;;;;;1999.90;999.90;;;;;;;;;;5057193;28;20041;-83
2024/02/14 12:25:16;;;;;;;1999.90;999.90;;;;;;;;;;5054098;28;20044;-82
2024/02/14 12:27:43;;;;;;;1999.90;999.90;;;;;;;;;;5059383;28;20106;-83
2024/02/14 12:30:10;;;;;;;1999.90;999.90;;;;;;;;;;5053479;28;20056;-84
2024/02/14 12:32:37;;;;;;;1999.90;999.90;;;;;;;;;;5045613;28;20045;-84
2024/02/14 12:35:04;;;;;;;1999.90;999.90;;;;;;;;;;5053131;28;20064;-83
2024/02/14 12:37:31;;;;;;;1999.90;999.90;;;;;;;;;;5050918;28;20049;-83
2024/02/14 12:39:59;;;;;;;1999.90;999.90;;;;;;;;;;5047671;28;20135;-87
2024/02/14 12:42:27;;;;;;;1999.90;999.90;;;;;;;;;;5057147;28;20098;-82
2024/02/14 12:44:55;;;;;;;1999.90;999.90;;;;;;;;;;5057408;28;20045;-84
2024/02/14 12:47:22;;;;;;;1999.90;999.90;;;;;;;;;;5044449;28;20564;-82
2024/02/14 12:49:49;;;;;;;1999.90;999.90;;;;;;;;;;5045235;28;20048;-81
2024/02/14 12:52:16;;;;;;;1999.90;999.90;;;;;;;;;;5047976;28;20099;-82
2024/02/14 12:54:52;;;;;;;1999.90;999.90;;;;;;;;;;5052401;28;20040;-84
2024/02/14 12:57:21;;;;;;;;;;;;;;;;;;5049699;28;20371;-82
2024/02/14 12:59:48;;;;;;;1999.90;999.90;;;;;;;;;;5052150;28;19927;-83
2024/02/14 13:02:14;;;;;;;1999.90;999.90;;;;;;;;;;5045485;28;20245;-83
2024/02/14 13:04:41;;;;;;;1999.90;999.90;;;;;;;;;;5049962;28;20045;-82
2024/02/14 13:07:08;;;;;;;1999.90;999.90;;;;;;;;;;5042307;28;20049;-83
2024/02/14 13:09:35;;;;;;;1999.90;999.90;;;;;;;;;;5055465;28;20090;-82
2024/02/14 13:12:02;;;;;;;1999.90;999.90;;;;;;;;;;5052202;28;20051;-83
2024/02/14 13:14:32;;;;;;;1999.90;999.90;;;;;;;;;;5047095;28;20041;-82
2024/02/14 13:16:58;;;;;;;1999.90;999.90;;;;;;;;;;5051769;28;20132;-82
2024/02/14 13:19:25;;;;;;;1999.90;999.90;;;;;;;;;;5039391;28;20134;-85
2024/02/14 13:21:51;;;;;;;1999.90;999.90;;;;;;;;;;5052881;28;20501;-83
2024/02/14 13:24:18;;;;;;;1999.90;999.90;;;;;;;;;;5043992;28;20048;-83
2024/02/14 13:26:45;;;;;;;1999.90;999.90;;;;;;;;;;5051024;28;20053;-82
2024/02/14 13:29:11;;;;;;;1999.90;999.90;;;;;;;;;;5042159;28;20474;-83
2024/02/14 13:31:39;;;;;;;1999.90;999.90;;;;;;;;;;5048485;28;20049;-84
2024/02/14 13:34:06;;;;;;;1999.90;999.90;;;;;;;;;;5047922;28;20055;-81
2024/02/14 13:36:32;;;;;;;1999.90;999.90;;;;;;;;;;5047968;28;20045;-82
2024/02/14 13:39:00;;;;;;;1999.90;999.90;;;;;;;;;;5048958;28;20057;-82
2024/02/14 13:41:26;;;;;;;1999.90;999.90;;;;;;;;;;5050316;28;20080;-82
2024/02/14 13:43:53;;;;;;;1999.90;999.90;;;;;;;;;;5049021;28;20051;-81